This is the latest recevied weather packets stored in our database for station/object OE3MNS-13. If no packets are shown the sender has not sent any weather packets the latest 10 day(s).
| Time | Temp. | Humidity | Pressure | Rain* | Wind** | Luminosity | Snow |
|---|---|---|---|---|---|---|---|
| 1777971320 | 23.33° C | 45% | 1008.1 hPa | 0 mm | - | 691 W/m² | - |
| 1777969518 | 21.67° C | 49% | 1008.4 hPa | 0 mm | - | 626 W/m² | - |
| 1777967720 | 19.44° C | 53% | 1008.5 hPa | 0 mm | - | 550 W/m² | - |
| 1777964117 | 15.56° C | 59% | 1008.9 hPa | 0 mm | - | 350 W/m² | - |
| 1777962320 | 12.78° C | 70% | 1008.9 hPa | 0 mm | - | 247 W/m² | - |
| 1777959321 | 12.22° C | 74% | 1008.9 hPa | 0 mm | - | 89 W/m² | - |
| 1777954518 | 10° C | 78% | 1008.6 hPa | 0 mm | - | 23 W/m² | - |
| 1777953322 | 10° C | 79% | 1008.6 hPa | 0 mm | - | 9 W/m² | - |
| 1777951541 | 10° C | 77% | 1008.6 hPa | 0 mm | - | 1 W/m² | - |
| 1777947924 | 11.11° C | 72% | 1008.8 hPa | 0 mm | - | 0 W/m² | - |
| 1777947318 | 11.67° C | 71% | 1008.9 hPa | 0 mm | - | 0 W/m² | - |
| 1777942521 | 13.33° C | 62% | 1009.2 hPa | 0 mm | - | 0 W/m² | - |
| 1777940719 | 13.89° C | 61% | 1009.2 hPa | 0 mm | - | 0 W/m² | - |
| 1777937121 | 14.44° C | 58% | 1009.4 hPa | 0 mm | - | 0 W/m² | - |
| 1777935921 | 15.56° C | 55% | 1009.6 hPa | 0 mm | - | 0 W/m² | - |
| 1777934719 | 16.67° C | 50% | 1009.7 hPa | 0 mm | - | 0 W/m² | - |
| 1777933518 | 18.33° C | 45% | 1009.6 hPa | 0 mm | - | 0 W/m² | - |
| 1777929319 | 20.56° C | 39% | 1009.7 hPa | 0 mm | - | 0 W/m² | - |
| 1777927524 | 20.56° C | 39% | 1009.8 hPa | 0 mm | - | 0 W/m² | - |
| 1777926322 | 21.11° C | 38% | 1009.8 hPa | 0 mm | - | 0 W/m² | - |
| 1777922718 | 22.22° C | 36% | 1009.8 hPa | 0 mm | - | 0 W/m² | - |
| 1777922121 | 22.22° C | 36% | 1009.7 hPa | 0 mm | - | 0 W/m² | - |
| 1777920321 | 22.78° C | 34% | 1009.7 hPa | 0 mm | - | 0 W/m² | - |
| 1777919762 | 22.78° C | 33% | 1009.7 hPa | 0 mm | - | 0 W/m² | - |
| 1777914919 | 24.44° C | 29% | 1009.6 hPa | 0 mm | - | 52 W/m² | - |
* Rain latest hour (hover to see other rain measurements)
** Current wind speed in m/s (hover to see current wind gust speed)